sensor_id;sensor_type;location;lat;lon;timestamp;temperature;humidity
44190;DHT22;29856;52.144;5.430;2023-02-26T00:01:22;4.40;99.90
44190;DHT22;29856;52.144;5.430;2023-02-26T00:03:52;4.30;99.90
44190;DHT22;29856;52.144;5.430;2023-02-26T00:06:18;4.20;99.90
44190;DHT22;29856;52.144;5.430;2023-02-26T00:08:44;4.10;99.90
44190;DHT22;29856;52.144;5.430;2023-02-26T00:11:10;4.10;99.90
44190;DHT22;29856;52.144;5.430;2023-02-26T00:13:37;4.20;99.90
44190;DHT22;29856;52.144;5.430;2023-02-26T00:16:09;4.20;99.90
44190;DHT22;29856;52.144;5.430;2023-02-26T00:18:37;4.20;99.90
44190;DHT22;29856;52.144;5.430;2023-02-26T00:21:03;4.00;99.90
44190;DHT22;29856;52.144;5.430;2023-02-26T00:23:29;3.90;99.90
44190;DHT22;29856;52.144;5.430;2023-02-26T00:25:56;3.70;99.90
44190;DHT22;29856;52.144;5.430;2023-02-26T00:28:21;3.60;99.90
44190;DHT22;29856;52.144;5.430;2023-02-26T00:30:47;3.50;99.90
44190;DHT22;29856;52.144;5.430;2023-02-26T00:33:13;3.40;99.90
44190;DHT22;29856;52.144;5.430;2023-02-26T00:35:39;3.40;99.90
44190;DHT22;29856;52.144;5.430;2023-02-26T00:38:11;3.30;99.90
44190;DHT22;29856;52.144;5.430;2023-02-26T00:40:48;3.30;99.90
44190;DHT22;29856;52.144;5.430;2023-02-26T00:43:17;3.30;99.90
44190;DHT22;29856;52.144;5.430;2023-02-26T00:49:04;3.30;99.90
44190;DHT22;29856;52.144;5.430;2023-02-26T00:51:55;3.30;99.90
44190;DHT22;29856;52.144;5.430;2023-02-26T00:54:25;3.30;99.90
44190;DHT22;29856;52.144;5.430;2023-02-26T00:56:52;3.20;99.90
44190;DHT22;29856;52.144;5.430;2023-02-26T00:59:19;3.20;99.90
44190;DHT22;29856;52.144;5.430;2023-02-26T01:01:45;3.20;99.90
44190;DHT22;29856;52.144;5.430;2023-02-26T01:04:12;3.10;99.90
44190;DHT22;29856;52.144;5.430;2023-02-26T01:06:46;3.10;99.90
44190;DHT22;29856;52.144;5.430;2023-02-26T01:09:32;3.10;99.90
44190;DHT22;29856;52.144;5.430;2023-02-26T01:11:59;3.10;99.90
44190;DHT22;29856;52.144;5.430;2023-02-26T01:14:25;3.10;99.90
44190;DHT22;29856;52.144;5.430;2023-02-26T01:16:59;3.10;99.90
44190;DHT22;29856;52.144;5.430;2023-02-26T01:19:51;3.00;99.90
44190;DHT22;29856;52.144;5.430;2023-02-26T01:25:09;3.00;99.90
44190;DHT22;29856;52.144;5.430;2023-02-26T01:27:35;3.00;99.90
44190;DHT22;29856;52.144;5.430;2023-02-26T01:30:02;3.00;99.90
44190;DHT22;29856;52.144;5.430;2023-02-26T01:32:52;3.00;99.90
44190;DHT22;29856;52.144;5.430;2023-02-26T01:35:36;2.90;99.90
44190;DHT22;29856;52.144;5.430;2023-02-26T01:38:17;2.90;99.90
44190;DHT22;29856;52.144;5.430;2023-02-26T01:42:08;3.00;99.90
44190;DHT22;29856;52.144;5.430;2023-02-26T01:44:14;2.90;99.90
44190;DHT22;29856;52.144;5.430;2023-02-26T01:47:09;3.00;99.90
44190;DHT22;29856;52.144;5.430;2023-02-26T01:49:37;3.00;99.90
44190;DHT22;29856;52.144;5.430;2023-02-26T01:55:10;3.00;99.90
44190;DHT22;29856;52.144;5.430;2023-02-26T01:57:36;2.90;99.90
44190;DHT22;29856;52.144;5.430;2023-02-26T02:00:03;2.90;99.90
44190;DHT22;29856;52.144;5.430;2023-02-26T02:02:29;3.10;99.90
44190;DHT22;29856;52.144;5.430;2023-02-26T02:04:55;3.10;99.90
44190;DHT22;29856;52.144;5.430;2023-02-26T02:07:20;3.20;99.90
44190;DHT22;29856;52.144;5.430;2023-02-26T02:09:46;3.30;99.90
44190;DHT22;29856;52.144;5.430;2023-02-26T02:15:24;3.30;99.90
44190;DHT22;29856;52.144;5.430;2023-02-26T02:18:13;3.30;99.90
44190;DHT22;29856;52.144;5.430;2023-02-26T02:21:06;3.30;99.90
44190;DHT22;29856;52.144;5.430;2023-02-26T02:29:33;3.30;99.90
44190;DHT22;29856;52.144;5.430;2023-02-26T02:32:14;3.20;99.90
44190;DHT22;29856;52.144;5.430;2023-02-26T02:34:48;3.10;99.90
44190;DHT22;29856;52.144;5.430;2023-02-26T02:37:26;3.00;99.90
44190;DHT22;29856;52.144;5.430;2023-02-26T02:40:00;3.00;99.90
44190;DHT22;29856;52.144;5.430;2023-02-26T02:48:16;3.00;99.90
44190;DHT22;29856;52.144;5.430;2023-02-26T02:50:43;2.90;99.90
44190;DHT22;29856;52.144;5.430;2023-02-26T02:53:49;3.00;99.90
44190;DHT22;29856;52.144;5.430;2023-02-26T02:56:28;3.00;99.90
44190;DHT22;29856;52.144;5.430;2023-02-26T02:59:00;3.00;99.90
44190;DHT22;29856;52.144;5.430;2023-02-26T03:01:27;2.90;99.90
44190;DHT22;29856;52.144;5.430;2023-02-26T03:04:01;3.00;99.90
44190;DHT22;29856;52.144;5.430;2023-02-26T03:06:27;3.10;99.90
44190;DHT22;29856;52.144;5.430;2023-02-26T03:08:53;2.90;99.90
44190;DHT22;29856;52.144;5.430;2023-02-26T03:11:18;2.90;99.90
44190;DHT22;29856;52.144;5.430;2023-02-26T03:13:45;3.00;99.90
44190;DHT22;29856;52.144;5.430;2023-02-26T03:19:20;2.80;99.90
44190;DHT22;29856;52.144;5.430;2023-02-26T03:22:10;3.00;99.90
44190;DHT22;29856;52.144;5.430;2023-02-26T03:24:59;3.10;99.90
44190;DHT22;29856;52.144;5.430;2023-02-26T03:27:54;3.10;99.90
44190;DHT22;29856;52.144;5.430;2023-02-26T03:33:16;3.00;99.90
44190;DHT22;29856;52.144;5.430;2023-02-26T03:35:49;2.70;99.90
44190;DHT22;29856;52.144;5.430;2023-02-26T03:38:30;2.70;99.90
44190;DHT22;29856;52.144;5.430;2023-02-26T03:41:17;2.70;99.90
44190;DHT22;29856;52.144;5.430;2023-02-26T03:43:50;2.70;99.90
44190;DHT22;29856;52.144;5.430;2023-02-26T03:46:23;2.70;99.90
44190;DHT22;29856;52.144;5.430;2023-02-26T03:48:51;2.50;99.90
44190;DHT22;29856;52.144;5.430;2023-02-26T03:51:20;2.50;99.90
44190;DHT22;29856;52.144;5.430;2023-02-26T03:53:56;2.50;99.90
44190;DHT22;29856;52.144;5.430;2023-02-26T03:58:57;2.30;99.90
44190;DHT22;29856;52.144;5.430;2023-02-26T04:01:38;2.40;99.90
44190;DHT22;29856;52.144;5.430;2023-02-26T04:04:10;2.40;99.90
44190;DHT22;29856;52.144;5.430;2023-02-26T04:06:36;2.40;99.90
44190;DHT22;29856;52.144;5.430;2023-02-26T04:09:05;2.40;99.90
44190;DHT22;29856;52.144;5.430;2023-02-26T04:11:31;2.30;99.90
44190;DHT22;29856;52.144;5.430;2023-02-26T04:13:57;2.40;99.90
44190;DHT22;29856;52.144;5.430;2023-02-26T04:16:22;2.60;99.90
44190;DHT22;29856;52.144;5.430;2023-02-26T04:18:48;2.80;99.90
44190;DHT22;29856;52.144;5.430;2023-02-26T04:21:16;2.60;99.90
44190;DHT22;29856;52.144;5.430;2023-02-26T04:23:43;2.60;99.90
44190;DHT22;29856;52.144;5.430;2023-02-26T04:26:08;2.60;99.90
44190;DHT22;29856;52.144;5.430;2023-02-26T04:28:34;2.80;99.90
44190;DHT22;29856;52.144;5.430;2023-02-26T04:30:59;2.90;99.90
44190;DHT22;29856;52.144;5.430;2023-02-26T04:33:25;2.90;99.90
44190;DHT22;29856;52.144;5.430;2023-02-26T04:35:50;2.80;99.90
44190;DHT22;29856;52.144;5.430;2023-02-26T04:38:16;2.70;99.90
44190;DHT22;29856;52.144;5.430;2023-02-26T04:40:41;2.70;99.90
44190;DHT22;29856;52.144;5.430;2023-02-26T04:43:07;2.60;99.90
44190;DHT22;29856;52.144;5.430;2023-02-26T04:45:33;2.60;99.90
44190;DHT22;29856;52.144;5.430;2023-02-26T04:47:58;2.60;99.90
44190;DHT22;29856;52.144;5.430;2023-02-26T04:50:24;2.70;99.90
44190;DHT22;29856;52.144;5.430;2023-02-26T04:52:49;2.60;99.90
44190;DHT22;29856;52.144;5.430;2023-02-26T04:55:15;2.50;99.90
44190;DHT22;29856;52.144;5.430;2023-02-26T04:57:40;2.70;99.90
44190;DHT22;29856;52.144;5.430;2023-02-26T05:00:06;2.80;99.90
44190;DHT22;29856;52.144;5.430;2023-02-26T05:02:32;2.70;99.90
44190;DHT22;29856;52.144;5.430;2023-02-26T05:04:58;2.60;99.90
44190;DHT22;29856;52.144;5.430;2023-02-26T05:07:24;2.50;99.90
44190;DHT22;29856;52.144;5.430;2023-02-26T05:09:49;2.40;99.90
44190;DHT22;29856;52.144;5.430;2023-02-26T05:12:15;2.40;99.90
44190;DHT22;29856;52.144;5.430;2023-02-26T05:14:40;2.30;99.90
44190;DHT22;29856;52.144;5.430;2023-02-26T05:17:06;2.30;99.90
44190;DHT22;29856;52.144;5.430;2023-02-26T05:19:31;2.20;99.90
44190;DHT22;29856;52.144;5.430;2023-02-26T05:21:57;2.10;99.90
44190;DHT22;29856;52.144;5.430;2023-02-26T05:24:22;2.10;99.90
44190;DHT22;29856;52.144;5.430;2023-02-26T05:26:48;2.10;99.90
44190;DHT22;29856;52.144;5.430;2023-02-26T05:29:13;2.10;99.90
44190;DHT22;29856;52.144;5.430;2023-02-26T05:31:40;2.10;99.90
44190;DHT22;29856;52.144;5.430;2023-02-26T05:34:06;2.00;99.90
44190;DHT22;29856;52.144;5.430;2023-02-26T05:36:31;2.00;99.90
44190;DHT22;29856;52.144;5.430;2023-02-26T05:38:57;2.00;99.90
44190;DHT22;29856;52.144;5.430;2023-02-26T05:41:22;2.10;99.90
44190;DHT22;29856;52.144;5.430;2023-02-26T05:43:48;2.00;99.90
44190;DHT22;29856;52.144;5.430;2023-02-26T05:46:13;1.90;99.90
44190;DHT22;29856;52.144;5.430;2023-02-26T05:48:39;2.00;99.90
44190;DHT22;29856;52.144;5.430;2023-02-26T05:51:05;2.00;99.90
44190;DHT22;29856;52.144;5.430;2023-02-26T05:53:30;2.10;99.90
44190;DHT22;29856;52.144;5.430;2023-02-26T05:55:55;2.10;99.90
44190;DHT22;29856;52.144;5.430;2023-02-26T05:58:21;2.20;99.90
44190;DHT22;29856;52.144;5.430;2023-02-26T06:00:47;2.20;99.90
44190;DHT22;29856;52.144;5.430;2023-02-26T06:03:12;2.20;99.90
44190;DHT22;29856;52.144;5.430;2023-02-26T06:05:38;2.20;99.90
44190;DHT22;29856;52.144;5.430;2023-02-26T06:08:04;2.10;99.90
44190;DHT22;29856;52.144;5.430;2023-02-26T06:10:29;2.10;99.90
44190;DHT22;29856;52.144;5.430;2023-02-26T06:12:55;2.00;99.90
44190;DHT22;29856;52.144;5.430;2023-02-26T06:15:21;2.00;99.90
44190;DHT22;29856;52.144;5.430;2023-02-26T06:17:46;1.90;99.90
44190;DHT22;29856;52.144;5.430;2023-02-26T06:20:12;2.00;99.90
44190;DHT22;29856;52.144;5.430;2023-02-26T06:22:37;2.00;99.90
44190;DHT22;29856;52.144;5.430;2023-02-26T06:25:03;2.00;99.90
44190;DHT22;29856;52.144;5.430;2023-02-26T06:27:29;1.90;99.90
44190;DHT22;29856;52.144;5.430;2023-02-26T06:29:54;1.90;99.90
44190;DHT22;29856;52.144;5.430;2023-02-26T06:32:20;1.90;99.90
44190;DHT22;29856;52.144;5.430;2023-02-26T06:34:45;2.00;99.90
44190;DHT22;29856;52.144;5.430;2023-02-26T06:37:11;1.80;99.90
44190;DHT22;29856;52.144;5.430;2023-02-26T06:39:36;1.80;99.90
44190;DHT22;29856;52.144;5.430;2023-02-26T06:42:02;1.80;99.90
44190;DHT22;29856;52.144;5.430;2023-02-26T06:44:27;1.70;99.90
44190;DHT22;29856;52.144;5.430;2023-02-26T06:46:53;1.60;99.90
44190;DHT22;29856;52.144;5.430;2023-02-26T06:49:18;1.50;99.90
44190;DHT22;29856;52.144;5.430;2023-02-26T06:51:44;1.40;99.90
44190;DHT22;29856;52.144;5.430;2023-02-26T06:54:09;1.40;99.90
44190;DHT22;29856;52.144;5.430;2023-02-26T06:56:35;1.30;99.90
44190;DHT22;29856;52.144;5.430;2023-02-26T06:59:00;1.20;99.90
44190;DHT22;29856;52.144;5.430;2023-02-26T07:01:26;1.20;99.90
44190;DHT22;29856;52.144;5.430;2023-02-26T07:03:51;1.20;99.90
44190;DHT22;29856;52.144;5.430;2023-02-26T07:06:17;1.20;99.90
44190;DHT22;29856;52.144;5.430;2023-02-26T07:08:42;1.30;99.90
44190;DHT22;29856;52.144;5.430;2023-02-26T07:11:08;1.30;99.90
44190;DHT22;29856;52.144;5.430;2023-02-26T07:13:33;1.30;99.90
44190;DHT22;29856;52.144;5.430;2023-02-26T07:15:59;1.40;99.90
44190;DHT22;29856;52.144;5.430;2023-02-26T07:18:24;1.50;99.90
44190;DHT22;29856;52.144;5.430;2023-02-26T07:20:49;1.60;99.90
44190;DHT22;29856;52.144;5.430;2023-02-26T07:23:16;1.60;99.90
44190;DHT22;29856;52.144;5.430;2023-02-26T07:25:41;1.60;99.90
44190;DHT22;29856;52.144;5.430;2023-02-26T07:28:07;1.50;99.90
44190;DHT22;29856;52.144;5.430;2023-02-26T07:30:32;1.50;99.90
44190;DHT22;29856;52.144;5.430;2023-02-26T07:32:58;1.70;99.90
44190;DHT22;29856;52.144;5.430;2023-02-26T07:35:23;1.70;99.90
44190;DHT22;29856;52.144;5.430;2023-02-26T07:37:49;1.70;99.90
44190;DHT22;29856;52.144;5.430;2023-02-26T07:40:14;1.90;99.90
44190;DHT22;29856;52.144;5.430;2023-02-26T07:42:40;1.90;99.90
44190;DHT22;29856;52.144;5.430;2023-02-26T07:45:06;2.10;99.90
44190;DHT22;29856;52.144;5.430;2023-02-26T07:47:32;2.10;99.90
44190;DHT22;29856;52.144;5.430;2023-02-26T07:49:58;2.10;99.90
44190;DHT22;29856;52.144;5.430;2023-02-26T07:52:24;2.20;99.90
44190;DHT22;29856;52.144;5.430;2023-02-26T07:54:49;2.30;99.90
44190;DHT22;29856;52.144;5.430;2023-02-26T07:57:15;2.40;99.90
44190;DHT22;29856;52.144;5.430;2023-02-26T07:59:40;2.50;99.90
44190;DHT22;29856;52.144;5.430;2023-02-26T08:02:06;2.50;99.90
44190;DHT22;29856;52.144;5.430;2023-02-26T08:04:31;2.60;99.90
44190;DHT22;29856;52.144;5.430;2023-02-26T08:06:58;2.70;99.90
44190;DHT22;29856;52.144;5.430;2023-02-26T08:09:23;2.70;99.90
44190;DHT22;29856;52.144;5.430;2023-02-26T08:11:49;2.90;99.90
44190;DHT22;29856;52.144;5.430;2023-02-26T08:14:14;3.10;99.90
44190;DHT22;29856;52.144;5.430;2023-02-26T08:16:40;3.10;99.90
44190;DHT22;29856;52.144;5.430;2023-02-26T08:19:05;3.00;99.90
44190;DHT22;29856;52.144;5.430;2023-02-26T08:21:31;3.10;99.90
44190;DHT22;29856;52.144;5.430;2023-02-26T08:23:56;3.10;99.90
44190;DHT22;29856;52.144;5.430;2023-02-26T08:26:22;3.00;99.90
44190;DHT22;29856;52.144;5.430;2023-02-26T08:28:47;3.20;99.90
44190;DHT22;29856;52.144;5.430;2023-02-26T08:31:13;3.20;99.90
44190;DHT22;29856;52.144;5.430;2023-02-26T08:33:39;3.30;99.90
44190;DHT22;29856;52.144;5.430;2023-02-26T08:36:05;3.30;99.90
44190;DHT22;29856;52.144;5.430;2023-02-26T08:38:31;3.30;99.90
44190;DHT22;29856;52.144;5.430;2023-02-26T08:40:57;3.40;99.90
44190;DHT22;29856;52.144;5.430;2023-02-26T08:43:23;3.50;99.90
44190;DHT22;29856;52.144;5.430;2023-02-26T08:45:51;3.60;99.90
44190;DHT22;29856;52.144;5.430;2023-02-26T08:48:17;3.80;99.90
44190;DHT22;29856;52.144;5.430;2023-02-26T08:50:42;3.60;99.90
44190;DHT22;29856;52.144;5.430;2023-02-26T08:53:08;3.60;99.90
44190;DHT22;29856;52.144;5.430;2023-02-26T08:55:33;3.60;99.90
44190;DHT22;29856;52.144;5.430;2023-02-26T08:57:59;3.60;99.90
44190;DHT22;29856;52.144;5.430;2023-02-26T09:00:24;3.70;99.90
44190;DHT22;29856;52.144;5.430;2023-02-26T09:02:50;3.60;99.90
44190;DHT22;29856;52.144;5.430;2023-02-26T09:05:16;3.80;99.90
44190;DHT22;29856;52.144;5.430;2023-02-26T09:07:42;3.80;99.90
44190;DHT22;29856;52.144;5.430;2023-02-26T09:10:08;3.80;99.90
44190;DHT22;29856;52.144;5.430;2023-02-26T09:12:34;3.70;99.90
44190;DHT22;29856;52.144;5.430;2023-02-26T09:14:59;3.80;99.90
44190;DHT22;29856;52.144;5.430;2023-02-26T09:17:25;3.80;99.90
44190;DHT22;29856;52.144;5.430;2023-02-26T09:19:50;3.90;99.90
44190;DHT22;29856;52.144;5.430;2023-02-26T09:22:16;4.00;99.90
44190;DHT22;29856;52.144;5.430;2023-02-26T09:24:42;4.10;99.90
44190;DHT22;29856;52.144;5.430;2023-02-26T09:27:07;4.10;99.90
44190;DHT22;29856;52.144;5.430;2023-02-26T09:29:33;4.20;99.90
44190;DHT22;29856;52.144;5.430;2023-02-26T09:31:59;4.20;99.90
44190;DHT22;29856;52.144;5.430;2023-02-26T09:34:24;4.30;99.90
44190;DHT22;29856;52.144;5.430;2023-02-26T09:36:50;4.40;99.90
44190;DHT22;29856;52.144;5.430;2023-02-26T09:39:15;4.50;99.90
44190;DHT22;29856;52.144;5.430;2023-02-26T09:41:46;4.50;99.90
44190;DHT22;29856;52.144;5.430;2023-02-26T09:44:33;4.50;99.90
44190;DHT22;29856;52.144;5.430;2023-02-26T09:52:28;4.80;99.90
44190;DHT22;29856;52.144;5.430;2023-02-26T09:55:21;4.80;99.90
44190;DHT22;29856;52.144;5.430;2023-02-26T09:57:48;4.90;99.90
44190;DHT22;29856;52.144;5.430;2023-02-26T10:02:59;5.00;99.90
44190;DHT22;29856;52.144;5.430;2023-02-26T10:05:53;5.00;99.90
44190;DHT22;29856;52.144;5.430;2023-02-26T10:08:21;5.10;99.90
44190;DHT22;29856;52.144;5.430;2023-02-26T10:11:26;5.10;99.90
44190;DHT22;29856;52.144;5.430;2023-02-26T10:14:00;5.20;99.90
44190;DHT22;29856;52.144;5.430;2023-02-26T10:16:29;5.30;99.90
44190;DHT22;29856;52.144;5.430;2023-02-26T10:19:08;5.40;99.90
44190;DHT22;29856;52.144;5.430;2023-02-26T10:21:40;5.40;99.90
44190;DHT22;29856;52.144;5.430;2023-02-26T10:24:14;5.40;99.90
44190;DHT22;29856;52.144;5.430;2023-02-26T10:26:54;5.50;99.90
44190;DHT22;29856;52.144;5.430;2023-02-26T10:29:42;5.60;99.90
44190;DHT22;29856;52.144;5.430;2023-02-26T10:34:56;5.70;99.90
44190;DHT22;29856;52.144;5.430;2023-02-26T10:37:48;5.70;99.90
44190;DHT22;29856;52.144;5.430;2023-02-26T10:40:43;5.70;99.90
44190;DHT22;29856;52.144;5.430;2023-02-26T10:43:17;5.50;99.90
44190;DHT22;29856;52.144;5.430;2023-02-26T10:46:13;5.70;99.90
44190;DHT22;29856;52.144;5.430;2023-02-26T10:51:24;5.90;99.90
44190;DHT22;29856;52.144;5.430;2023-02-26T10:53:55;6.10;99.90
44190;DHT22;29856;52.144;5.430;2023-02-26T10:56:33;6.10;99.90
44190;DHT22;29856;52.144;5.430;2023-02-26T10:58:59;6.10;99.90
44190;DHT22;29856;52.144;5.430;2023-02-26T11:01:28;6.10;99.90
44190;DHT22;29856;52.144;5.430;2023-02-26T11:06:30;6.00;99.90
44190;DHT22;29856;52.144;5.430;2023-02-26T11:08:58;6.00;99.90
44190;DHT22;29856;52.144;5.430;2023-02-26T11:11:36;6.10;99.90
44190;DHT22;29856;52.144;5.430;2023-02-26T11:14:03;6.10;99.30
44190;DHT22;29856;52.144;5.430;2023-02-26T11:16:29;6.20;99.90
44190;DHT22;29856;52.144;5.430;2023-02-26T11:18:58;6.30;99.80
44190;DHT22;29856;52.144;5.430;2023-02-26T11:21:28;6.40;99.60
44190;DHT22;29856;52.144;5.430;2023-02-26T11:24:28;6.30;99.20
44190;DHT22;29856;52.144;5.430;2023-02-26T11:26:54;6.40;98.70
44190;DHT22;29856;52.144;5.430;2023-02-26T11:29:21;6.40;99.00
44190;DHT22;29856;52.144;5.430;2023-02-26T11:31:50;6.30;98.50
44190;DHT22;29856;52.144;5.430;2023-02-26T11:34:21;6.40;98.70
44190;DHT22;29856;52.144;5.430;2023-02-26T11:36:47;6.20;98.60
44190;DHT22;29856;52.144;5.430;2023-02-26T11:39:20;6.20;99.10
44190;DHT22;29856;52.144;5.430;2023-02-26T11:41:47;6.20;98.40
44190;DHT22;29856;52.144;5.430;2023-02-26T11:44:17;6.30;99.20
44190;DHT22;29856;52.144;5.430;2023-02-26T11:46:56;6.40;99.90
44190;DHT22;29856;52.144;5.430;2023-02-26T11:49:26;6.40;99.70
44190;DHT22;29856;52.144;5.430;2023-02-26T11:54:40;6.40;99.00
44190;DHT22;29856;52.144;5.430;2023-02-26T11:57:17;6.40;98.80
44190;DHT22;29856;52.144;5.430;2023-02-26T11:59:48;6.40;99.20
44190;DHT22;29856;52.144;5.430;2023-02-26T12:02:16;6.40;98.60
44190;DHT22;29856;52.144;5.430;2023-02-26T12:04:44;6.60;99.20
44190;DHT22;29856;52.144;5.430;2023-02-26T12:07:13;6.80;99.30
44190;DHT22;29856;52.144;5.430;2023-02-26T12:09:39;6.90;99.50
44190;DHT22;29856;52.144;5.430;2023-02-26T12:17:34;7.10;99.40
44190;DHT22;29856;52.144;5.430;2023-02-26T12:25:11;6.90;99.90
44190;DHT22;29856;52.144;5.430;2023-02-26T12:33:13;6.70;99.90
44190;DHT22;29856;52.144;5.430;2023-02-26T12:35:45;6.80;99.80
44190;DHT22;29856;52.144;5.430;2023-02-26T12:41:16;6.80;99.80
44190;DHT22;29856;52.144;5.430;2023-02-26T12:43:49;6.90;99.90
44190;DHT22;29856;52.144;5.430;2023-02-26T12:46:54;6.90;99.70
44190;DHT22;29856;52.144;5.430;2023-02-26T13:03:34;7.20;99.40
44190;DHT22;29856;52.144;5.430;2023-02-26T13:15:07;7.40;99.50
44190;DHT22;29856;52.144;5.430;2023-02-26T13:17:45;7.40;98.50
44190;DHT22;29856;52.144;5.430;2023-02-26T13:20:25;7.40;98.50
44190;DHT22;29856;52.144;5.430;2023-02-26T13:23:18;7.40;99.00
44190;DHT22;29856;52.144;5.430;2023-02-26T13:25:58;7.30;98.90
44190;DHT22;29856;52.144;5.430;2023-02-26T13:28:45;7.30;99.00
44190;DHT22;29856;52.144;5.430;2023-02-26T13:31:35;7.40;98.50
44190;DHT22;29856;52.144;5.430;2023-02-26T13:34:11;7.50;99.30
44190;DHT22;29856;52.144;5.430;2023-02-26T13:36:37;7.40;99.10
44190;DHT22;29856;52.144;5.430;2023-02-26T13:39:28;7.40;97.60
44190;DHT22;29856;52.144;5.430;2023-02-26T13:50:26;7.60;97.80
44190;DHT22;29856;52.144;5.430;2023-02-26T13:53:03;7.60;98.00
44190;DHT22;29856;52.144;5.430;2023-02-26T13:55:42;7.70;98.10
44190;DHT22;29856;52.144;5.430;2023-02-26T13:58:39;7.70;98.30
44190;DHT22;29856;52.144;5.430;2023-02-26T14:01:48;7.70;97.80
44190;DHT22;29856;52.144;5.430;2023-02-26T14:09:34;7.90;99.90
44190;DHT22;29856;52.144;5.430;2023-02-26T14:14:41;7.60;99.70
44190;DHT22;29856;52.144;5.430;2023-02-26T14:24:59;7.70;99.60
44190;DHT22;29856;52.144;5.430;2023-02-26T14:27:46;7.50;98.60
44190;DHT22;29856;52.144;5.430;2023-02-26T14:30:27;7.40;99.10
44190;DHT22;29856;52.144;5.430;2023-02-26T14:33:06;7.60;98.70
44190;DHT22;29856;52.144;5.430;2023-02-26T14:35:36;7.60;98.10
44190;DHT22;29856;52.144;5.430;2023-02-26T14:38:05;7.60;98.10
44190;DHT22;29856;52.144;5.430;2023-02-26T14:40:41;7.70;98.10
44190;DHT22;29856;52.144;5.430;2023-02-26T14:43:13;7.70;98.40
44190;DHT22;29856;52.144;5.430;2023-02-26T14:45:48;7.60;98.20
44190;DHT22;29856;52.144;5.430;2023-02-26T14:48:17;7.70;98.20
44190;DHT22;29856;52.144;5.430;2023-02-26T14:56:28;7.90;98.70
44190;DHT22;29856;52.144;5.430;2023-02-26T14:59:04;8.00;98.80
44190;DHT22;29856;52.144;5.430;2023-02-26T15:04:27;8.00;99.40
44190;DHT22;29856;52.144;5.430;2023-02-26T15:07:10;7.80;99.10
44190;DHT22;29856;52.144;5.430;2023-02-26T15:09:47;7.60;99.30
44190;DHT22;29856;52.144;5.430;2023-02-26T15:12:38;7.60;99.60
44190;DHT22;29856;52.144;5.430;2023-02-26T15:17:54;7.70;99.20
44190;DHT22;29856;52.144;5.430;2023-02-26T15:20:41;7.70;98.90
44190;DHT22;29856;52.144;5.430;2023-02-26T15:23:33;7.70;98.80
44190;DHT22;29856;52.144;5.430;2023-02-26T15:26:01;7.70;98.50
44190;DHT22;29856;52.144;5.430;2023-02-26T15:28:30;7.60;99.40
44190;DHT22;29856;52.144;5.430;2023-02-26T15:30:58;7.80;98.80
44190;DHT22;29856;52.144;5.430;2023-02-26T15:33:25;7.80;98.90
44190;DHT22;29856;52.144;5.430;2023-02-26T15:35:53;7.90;99.50
44190;DHT22;29856;52.144;5.430;2023-02-26T15:38:19;7.90;99.80
44190;DHT22;29856;52.144;5.430;2023-02-26T15:40:45;7.60;98.90
44190;DHT22;29856;52.144;5.430;2023-02-26T15:43:15;7.60;99.40
44190;DHT22;29856;52.144;5.430;2023-02-26T15:45:46;7.50;99.40
44190;DHT22;29856;52.144;5.430;2023-02-26T15:48:30;7.50;99.50
44190;DHT22;29856;52.144;5.430;2023-02-26T15:51:01;7.50;99.30
44190;DHT22;29856;52.144;5.430;2023-02-26T15:55:56;7.40;99.60
44190;DHT22;29856;52.144;5.430;2023-02-26T15:58:46;7.20;99.60
44190;DHT22;29856;52.144;5.430;2023-02-26T16:01:19;7.20;99.50
44190;DHT22;29856;52.144;5.430;2023-02-26T16:03:45;7.20;99.90
44190;DHT22;29856;52.144;5.430;2023-02-26T16:06:28;7.20;99.90
44190;DHT22;29856;52.144;5.430;2023-02-26T16:08:54;7.30;99.90
44190;DHT22;29856;52.144;5.430;2023-02-26T16:11:20;7.40;99.90
44190;DHT22;29856;52.144;5.430;2023-02-26T16:13:48;7.20;99.90
44190;DHT22;29856;52.144;5.430;2023-02-26T16:16:17;7.10;99.90
44190;DHT22;29856;52.144;5.430;2023-02-26T16:18:45;6.90;99.90
44190;DHT22;29856;52.144;5.430;2023-02-26T16:21:21;6.90;99.90
44190;DHT22;29856;52.144;5.430;2023-02-26T16:23:49;6.90;99.90
44190;DHT22;29856;52.144;5.430;2023-02-26T16:26:32;6.80;99.90
44190;DHT22;29856;52.144;5.430;2023-02-26T16:29:05;6.80;99.90
44190;DHT22;29856;52.144;5.430;2023-02-26T16:31:32;6.80;99.90
44190;DHT22;29856;52.144;5.430;2023-02-26T16:34:01;6.80;99.90
44190;DHT22;29856;52.144;5.430;2023-02-26T16:36:31;6.80;99.90
44190;DHT22;29856;52.144;5.430;2023-02-26T16:38:58;6.80;99.90
44190;DHT22;29856;52.144;5.430;2023-02-26T16:41:27;6.70;99.90
44190;DHT22;29856;52.144;5.430;2023-02-26T16:43:55;6.70;99.90
44190;DHT22;29856;52.144;5.430;2023-02-26T16:46:40;6.60;99.90
44190;DHT22;29856;52.144;5.430;2023-02-26T16:49:14;6.50;99.90
44190;DHT22;29856;52.144;5.430;2023-02-26T16:51:44;6.40;99.90
44190;DHT22;29856;52.144;5.430;2023-02-26T16:56:58;6.20;99.90
44190;DHT22;29856;52.144;5.430;2023-02-26T16:59:27;6.20;99.90
44190;DHT22;29856;52.144;5.430;2023-02-26T17:02:13;6.10;99.90
44190;DHT22;29856;52.144;5.430;2023-02-26T17:04:40;6.00;99.90
44190;DHT22;29856;52.144;5.430;2023-02-26T17:07:35;6.00;99.90
44190;DHT22;29856;52.144;5.430;2023-02-26T17:10:34;5.90;99.90
44190;DHT22;29856;52.144;5.430;2023-02-26T17:16:07;5.90;99.90
44190;DHT22;29856;52.144;5.430;2023-02-26T17:18:33;5.80;99.90
44190;DHT22;29856;52.144;5.430;2023-02-26T17:20:59;5.80;99.90
44190;DHT22;29856;52.144;5.430;2023-02-26T17:23:28;5.70;99.90
44190;DHT22;29856;52.144;5.430;2023-02-26T17:25:54;5.60;99.90
44190;DHT22;29856;52.144;5.430;2023-02-26T17:28:26;5.60;99.90
44190;DHT22;29856;52.144;5.430;2023-02-26T17:30:52;5.50;99.90
44190;DHT22;29856;52.144;5.430;2023-02-26T17:33:19;5.50;99.90
44190;DHT22;29856;52.144;5.430;2023-02-26T17:35:44;5.50;99.90
44190;DHT22;29856;52.144;5.430;2023-02-26T17:38:11;5.40;99.90
44190;DHT22;29856;52.144;5.430;2023-02-26T17:40:37;5.40;99.90
44190;DHT22;29856;52.144;5.430;2023-02-26T17:43:03;5.40;99.90
44190;DHT22;29856;52.144;5.430;2023-02-26T17:45:31;5.40;99.90
44190;DHT22;29856;52.144;5.430;2023-02-26T17:47:57;5.40;99.90
44190;DHT22;29856;52.144;5.430;2023-02-26T17:50:39;5.40;99.90
44190;DHT22;29856;52.144;5.430;2023-02-26T17:53:06;5.30;99.90
44190;DHT22;29856;52.144;5.430;2023-02-26T17:55:32;5.20;99.90
44190;DHT22;29856;52.144;5.430;2023-02-26T17:57:57;5.20;99.90
44190;DHT22;29856;52.144;5.430;2023-02-26T18:00:23;5.10;99.90
44190;DHT22;29856;52.144;5.430;2023-02-26T18:02:49;5.00;99.90
44190;DHT22;29856;52.144;5.430;2023-02-26T18:05:15;5.00;99.90
44190;DHT22;29856;52.144;5.430;2023-02-26T18:07:41;5.00;99.90
44190;DHT22;29856;52.144;5.430;2023-02-26T18:10:10;5.10;99.90
44190;DHT22;29856;52.144;5.430;2023-02-26T18:12:40;5.00;99.90
44190;DHT22;29856;52.144;5.430;2023-02-26T18:15:05;4.90;99.90
44190;DHT22;29856;52.144;5.430;2023-02-26T18:17:31;4.90;99.90
44190;DHT22;29856;52.144;5.430;2023-02-26T18:19:56;5.00;99.90
44190;DHT22;29856;52.144;5.430;2023-02-26T18:22:23;4.90;99.90
44190;DHT22;29856;52.144;5.430;2023-02-26T18:24:49;4.90;99.90